createdAt,value
2017-12-08T00:00:57.659Z,7.37
2017-12-08T00:01:57.390Z,7.4
2017-12-08T00:02:57.375Z,7.37
2017-12-08T00:03:57.362Z,7.35
2017-12-08T00:04:57.342Z,7.3
2017-12-08T00:05:57.591Z,7.28
2017-12-08T00:06:57.572Z,7.3
2017-12-08T00:07:57.568Z,7.27
2017-12-08T00:08:57.303Z,7.27
2017-12-08T00:09:57.288Z,7.31
2017-12-08T00:10:57.273Z,7.31
2017-12-08T00:11:57.537Z,7.27
2017-12-08T00:12:57.518Z,7.28
2017-12-08T00:13:57.500Z,7.28
2017-12-08T00:14:57.230Z,7.35
2017-12-08T00:15:57.471Z,7.31
2017-12-08T00:16:57.467Z,7.28
2017-12-08T00:17:57.467Z,7.35
2017-12-08T00:18:57.434Z,7.3
2017-12-08T00:19:57.429Z,7.31
2017-12-08T00:20:57.420Z,7.43
2017-12-08T00:21:57.410Z,7.4
2017-12-08T00:22:57.383Z,7.28
2017-12-08T00:23:57.368Z,7.37
2017-12-08T00:24:57.375Z,7.37
2017-12-08T00:25:57.109Z,7.39
2017-12-08T00:26:57.090Z,7.39
2017-12-08T00:27:57.076Z,7.4
2017-12-08T00:28:57.326Z,7.3
2017-12-08T00:29:57.299Z,7.27
2017-12-08T00:30:57.308Z,7.24
2017-12-08T00:31:57.290Z,7.25
2017-12-08T00:32:57.282Z,7.27
2017-12-08T00:33:57.279Z,7.23
2017-12-08T00:34:57.256Z,7.21
2017-12-08T00:35:57.255Z,7.24
2017-12-08T00:36:57.239Z,7.27
2017-12-08T00:37:57.209Z,7.17
2017-12-08T00:38:57.201Z,7.28
2017-12-08T00:39:57.203Z,7.31
2017-12-08T00:40:56.931Z,7.17
2017-12-08T00:41:57.176Z,7.25
2017-12-08T00:42:57.162Z,7.17
2017-12-08T00:43:57.159Z,7.15
2017-12-08T00:44:57.152Z,7.15
2017-12-08T00:45:57.148Z,7.13
2017-12-08T00:46:57.110Z,7.23
2017-12-08T00:47:57.108Z,7.21
2017-12-08T00:48:56.837Z,7.21
2017-12-08T00:49:56.817Z,7.17
2017-12-08T00:50:56.816Z,7.31
2017-12-08T00:51:57.049Z,7.27
2017-12-08T00:52:57.040Z,7.25
2017-12-08T00:53:57.034Z,7.27
2017-12-08T00:54:57.064Z,7.27
2017-12-08T00:55:57.015Z,7.24
2017-12-08T00:56:56.993Z,7.25
2017-12-08T00:57:56.743Z,7.25
2017-12-08T00:58:56.982Z,7.28
2017-12-08T00:59:56.951Z,7.25
2017-12-08T01:00:56.938Z,7.23
2017-12-08T01:01:56.944Z,7.3
2017-12-08T01:02:56.936Z,7.27
2017-12-08T01:03:56.932Z,7.37
2017-12-08T01:04:56.896Z,7.37
2017-12-08T01:05:56.885Z,7.34
2017-12-08T01:06:56.617Z,7.24
2017-12-08T01:07:56.873Z,7.27
2017-12-08T01:08:56.854Z,7.32
2017-12-08T01:09:56.838Z,7.3
2017-12-08T01:10:56.852Z,7.34
2017-12-08T01:11:56.820Z,7.31
2017-12-08T01:12:56.808Z,7.25
2017-12-08T01:13:56.802Z,7.4
2017-12-08T01:14:56.795Z,7.39
2017-12-08T01:15:56.781Z,7.45
2017-12-08T01:16:56.767Z,7.42
2017-12-08T01:17:56.782Z,7.42
2017-12-08T01:18:56.727Z,7.39
2017-12-08T01:19:56.770Z,7.43
2017-12-08T01:20:56.445Z,7.4
2017-12-08T01:21:56.705Z,7.43
2017-12-08T01:22:56.697Z,7.46
2017-12-08T01:23:56.421Z,7.42
2017-12-08T01:24:56.662Z,7.53
2017-12-08T01:25:56.413Z,7.48
2017-12-08T01:26:56.636Z,7.52
2017-12-08T01:27:56.630Z,7.48
2017-12-08T01:28:56.610Z,7.46
2017-12-08T01:29:56.602Z,7.46
2017-12-08T01:30:56.347Z,7.46
2017-12-08T01:31:56.589Z,7.45
2017-12-08T01:32:56.311Z,7.46
2017-12-08T01:33:56.574Z,7.48
2017-12-08T01:34:56.548Z,7.39
2017-12-08T01:35:56.535Z,7.5
2017-12-08T01:36:56.544Z,7.55
2017-12-08T01:37:56.505Z,7.49
2017-12-08T01:38:56.496Z,7.42
2017-12-08T01:39:56.500Z,7.49
2017-12-08T01:40:56.478Z,7.46
2017-12-08T01:41:56.477Z,7.49
2017-12-08T01:42:56.463Z,7.46
2017-12-08T01:43:56.447Z,7.55
2017-12-08T01:44:56.437Z,7.57
2017-12-08T01:45:56.428Z,7.49
2017-12-08T01:46:56.403Z,7.63
2017-12-08T01:47:56.406Z,7.6
2017-12-08T01:48:56.393Z,7.55
2017-12-08T01:49:56.378Z,7.57
2017-12-08T01:50:56.351Z,7.57
2017-12-08T01:51:56.344Z,7.57
2017-12-08T01:52:56.344Z,7.57
2017-12-08T01:53:56.328Z,7.61
2017-12-08T01:54:56.324Z,7.57
2017-12-08T01:55:56.304Z,7.55
2017-12-08T01:56:55.784Z,7.6
2017-12-08T01:57:56.288Z,7.6
2017-12-08T01:58:56.260Z,7.6
2017-12-08T01:59:56.267Z,7.53
2017-12-08T02:00:56.246Z,7.63
2017-12-08T02:01:56.235Z,7.6
2017-12-08T02:02:56.242Z,7.55
2017-12-08T02:03:56.228Z,7.63
2017-12-08T02:04:56.209Z,7.68
2017-12-08T02:05:56.196Z,7.55
2017-12-08T02:06:56.174Z,7.55
2017-12-08T02:07:56.181Z,7.55
2017-12-08T02:08:56.165Z,7.52
2017-12-08T02:09:56.149Z,7.53
2017-12-08T02:10:56.153Z,7.55
2017-12-08T02:11:56.152Z,7.5
2017-12-08T02:12:56.147Z,7.53
2017-12-08T02:13:55.840Z,7.57
2017-12-08T02:14:56.111Z,7.55
2017-12-08T02:15:56.094Z,7.58
2017-12-08T02:16:56.082Z,7.52
2017-12-08T02:17:56.084Z,7.5
2017-12-08T02:18:56.066Z,7.5
2017-12-08T02:19:56.023Z,7.58
2017-12-08T02:20:56.019Z,7.57
2017-12-08T02:21:55.752Z,7.6
2017-12-08T02:22:55.984Z,7.57
2017-12-08T02:23:55.996Z,7.53
2017-12-08T02:24:55.960Z,7.55
2017-12-08T02:25:55.951Z,7.55
2017-12-08T02:26:55.943Z,7.6
2017-12-08T02:27:55.946Z,7.61
2017-12-08T02:28:55.945Z,7.6
2017-12-08T02:29:55.915Z,7.67
2017-12-08T02:30:55.910Z,7.57
2017-12-08T02:31:55.879Z,7.61
2017-12-08T02:32:55.871Z,7.67
2017-12-08T02:33:55.868Z,7.53
2017-12-08T02:34:55.860Z,7.58
2017-12-08T02:35:55.840Z,7.69
2017-12-08T02:36:55.832Z,7.6
2017-12-08T02:37:55.819Z,7.6
2017-12-08T02:38:55.805Z,7.55
2017-12-08T02:39:55.795Z,7.67
2017-12-08T02:40:55.799Z,7.69
2017-12-08T02:41:55.785Z,7.58
2017-12-08T02:42:55.769Z,7.74
2017-12-08T02:43:55.749Z,7.69
2017-12-08T02:44:55.739Z,7.64
2017-12-08T02:45:55.466Z,7.68
2017-12-08T02:46:55.713Z,7.68
2017-12-08T02:47:55.712Z,7.74
2017-12-08T02:48:55.697Z,7.72
2017-12-08T02:49:55.680Z,7.8
2017-12-08T02:50:55.671Z,7.79
2017-12-08T02:51:55.674Z,7.83
2017-12-08T02:52:55.649Z,7.77
2017-12-08T02:53:55.638Z,7.77
2017-12-08T02:54:55.621Z,7.72
2017-12-08T02:55:55.621Z,7.77
2017-12-08T02:56:55.602Z,7.77
2017-12-08T02:57:55.593Z,7.85
2017-12-08T02:58:55.573Z,7.82
2017-12-08T02:59:55.561Z,7.85
2017-12-08T03:00:55.558Z,7.89
2017-12-08T03:01:55.544Z,7.89
2017-12-08T03:02:55.275Z,7.92
2017-12-08T03:03:55.522Z,7.9
2017-12-08T03:04:55.513Z,7.9
2017-12-08T03:05:55.497Z,7.89
2017-12-08T03:06:55.232Z,7.83
2017-12-08T03:07:55.476Z,7.87
2017-12-08T03:08:55.465Z,7.89
2017-12-08T03:09:55.463Z,7.93
2017-12-08T03:10:55.449Z,7.93
2017-12-08T03:11:55.428Z,7.98
2017-12-08T03:12:55.420Z,7.89
2017-12-08T03:13:55.152Z,7.86
2017-12-08T03:14:55.395Z,7.93
2017-12-08T03:15:55.387Z,7.93
2017-12-08T03:16:55.366Z,7.86
2017-12-08T03:17:55.363Z,7.82
2017-12-08T03:18:55.355Z,7.82
2017-12-08T03:19:55.337Z,7.86
2017-12-08T03:20:55.332Z,7.9
2017-12-08T03:21:55.311Z,7.89
2017-12-08T03:22:55.301Z,7.86
2017-12-08T03:23:55.308Z,7.86
2017-12-08T03:24:55.025Z,7.85
2017-12-08T03:25:55.280Z,7.87
2017-12-08T03:26:55.264Z,7.82
2017-12-08T03:27:55.261Z,7.79
2017-12-08T03:28:55.239Z,7.85
2017-12-08T03:29:55.225Z,7.87
2017-12-08T03:30:55.226Z,7.8
2017-12-08T03:31:55.207Z,7.8
2017-12-08T03:32:55.183Z,7.79
2017-12-08T03:33:54.918Z,7.83
2017-12-08T03:34:55.165Z,7.86
2017-12-08T03:35:55.166Z,7.86
2017-12-08T03:36:55.146Z,7.85
2017-12-08T03:37:55.145Z,7.82
2017-12-08T03:38:55.127Z,7.92
2017-12-08T03:39:55.129Z,7.86
2017-12-08T03:40:55.100Z,7.79
2017-12-08T03:41:55.089Z,7.87
2017-12-08T03:42:55.178Z,7.87
2017-12-08T03:43:54.817Z,7.87
2017-12-08T03:44:55.472Z,7.77
2017-12-08T03:45:54.789Z,7.85
2017-12-08T03:46:55.032Z,7.98
2017-12-08T03:47:55.026Z,7.93
2017-12-08T03:48:55.005Z,7.87
2017-12-08T03:49:55.010Z,7.98
2017-12-08T03:50:54.989Z,8.04
2017-12-08T03:51:54.985Z,8.01
2017-12-08T03:52:54.707Z,8
2017-12-08T03:53:54.948Z,8.02
2017-12-08T03:54:54.432Z,8.02
2017-12-08T03:55:54.937Z,8.04
2017-12-08T03:56:54.928Z,8.02
2017-12-08T03:57:54.915Z,8.04
2017-12-08T03:58:54.895Z,8
2017-12-08T03:59:54.885Z,8.05
2017-12-08T04:00:54.876Z,8.01
2017-12-08T04:01:54.859Z,7.97
2017-12-08T04:02:54.848Z,8.05
2017-12-08T04:03:54.844Z,8
2017-12-08T04:04:54.826Z,7.98
2017-12-08T04:05:54.829Z,8.01
2017-12-08T04:06:54.541Z,7.89
2017-12-08T04:07:54.804Z,7.93
2017-12-08T04:08:54.775Z,7.86
2017-12-08T04:09:54.773Z,7.83
2017-12-08T04:10:54.503Z,7.79
2017-12-08T04:11:54.754Z,7.74
2017-12-08T04:12:54.743Z,7.72
2017-12-08T04:13:54.722Z,7.61
2017-12-08T04:14:54.734Z,7.6
2017-12-08T04:15:54.707Z,7.6
2017-12-08T04:16:54.440Z,7.58
2017-12-08T04:17:54.683Z,7.34
2017-12-08T04:18:54.674Z,7.24
2017-12-08T04:19:54.664Z,7.2
2017-12-08T04:20:54.648Z,7.23
2017-12-08T04:21:54.628Z,7.13
2017-12-08T04:22:54.633Z,7.1
2017-12-08T04:23:54.617Z,6.99
2017-12-08T04:24:54.598Z,6.97
2017-12-08T04:25:54.586Z,6.8
2017-12-08T04:26:54.588Z,6.89
2017-12-08T04:27:54.578Z,6.81
2017-12-08T04:28:54.563Z,6.67
2017-12-08T04:29:54.601Z,6.74
2017-12-08T04:30:54.537Z,6.73
2017-12-08T04:31:54.534Z,6.73
2017-12-08T04:32:54.508Z,6.8
2017-12-08T04:33:54.245Z,6.84
2017-12-08T04:34:54.483Z,6.81
2017-12-08T04:35:54.471Z,6.88
2017-12-08T04:36:54.466Z,6.85
2017-12-08T04:37:54.446Z,6.97
2017-12-08T04:38:54.431Z,7.02
2017-12-08T04:39:54.423Z,7.06
2017-12-08T04:40:54.404Z,7.07
2017-12-08T04:41:54.407Z,7.06
2017-12-08T04:42:54.382Z,7.06
2017-12-08T04:43:54.369Z,7.03
2017-12-08T04:44:54.362Z,7.09
2017-12-08T04:45:54.348Z,7.06
2017-12-08T04:46:54.346Z,7.07
2017-12-08T04:47:54.325Z,6.95
2017-12-08T04:48:54.338Z,7.02
2017-12-08T04:49:54.316Z,6.98
2017-12-08T04:50:54.339Z,6.92
2017-12-08T04:51:54.015Z,6.94
2017-12-08T04:52:54.018Z,6.84
2017-12-08T04:53:54.003Z,6.8
2017-12-08T04:54:54.245Z,6.91
2017-12-08T04:55:54.302Z,6.85
2017-12-08T04:56:53.970Z,6.66
2017-12-08T04:57:54.216Z,6.7
2017-12-08T04:58:54.187Z,6.71
2017-12-08T04:59:54.189Z,6.64
2017-12-08T05:00:53.980Z,6.52
2017-12-08T05:01:54.176Z,6.56
2017-12-08T05:02:54.144Z,6.51
2017-12-08T05:03:54.141Z,6.44
2017-12-08T05:04:54.130Z,6.3
2017-12-08T05:05:54.115Z,6.44
2017-12-08T05:06:54.088Z,6.31
2017-12-08T05:07:54.088Z,6.3
2017-12-08T05:08:54.076Z,6.25
2017-12-08T05:09:54.052Z,6.21
2017-12-08T05:10:54.046Z,6.12
2017-12-08T05:11:54.034Z,6.03
2017-12-08T05:12:54.017Z,6.03
2017-12-08T05:13:54.009Z,6.14
2017-12-08T05:14:54.003Z,6.09
2017-12-08T05:15:53.976Z,6.06
2017-12-08T05:16:53.986Z,6
2017-12-08T05:17:53.969Z,5.99
2017-12-08T05:18:53.698Z,5.91
2017-12-08T05:19:53.939Z,5.9
2017-12-08T05:20:53.919Z,5.97
2017-12-08T05:21:53.905Z,5.91
2017-12-08T05:22:53.893Z,5.94
2017-12-08T05:23:53.888Z,5.96
2017-12-08T05:24:53.885Z,5.97
2017-12-08T05:25:53.860Z,6.06
2017-12-08T05:26:53.843Z,6.03
2017-12-08T05:27:53.870Z,6.14
2017-12-08T05:28:53.824Z,6.19
2017-12-08T05:29:53.807Z,6.27
2017-12-08T05:30:53.800Z,6.36
2017-12-08T05:31:53.535Z,6.34
2017-12-08T05:32:53.797Z,6.46
2017-12-08T05:33:53.760Z,6.48
2017-12-08T05:34:53.744Z,6.58
2017-12-08T05:35:53.478Z,6.62
2017-12-08T05:36:53.729Z,6.69
2017-12-08T05:37:53.710Z,6.71
2017-12-08T05:38:53.707Z,6.64
2017-12-08T05:39:53.441Z,6.77
2017-12-08T05:40:53.677Z,6.79
2017-12-08T05:41:53.657Z,6.84
2017-12-08T05:42:53.647Z,6.85
2017-12-08T05:43:53.662Z,6.89
2017-12-08T05:44:53.616Z,6.97
2017-12-08T05:45:53.604Z,6.97
2017-12-08T05:46:53.602Z,7.07
2017-12-08T05:47:53.587Z,7.2
2017-12-08T05:48:53.576Z,7.07
2017-12-08T05:49:53.561Z,7.2
2017-12-08T05:50:53.556Z,7.12
2017-12-08T05:51:53.537Z,7.25
2017-12-08T05:52:53.528Z,7.25
2017-12-08T05:53:53.511Z,7.28
2017-12-08T05:54:53.514Z,7.28
2017-12-08T05:55:53.619Z,7.31
2017-12-08T05:56:53.225Z,7.32
2017-12-08T05:57:53.466Z,7.34
2017-12-08T05:58:53.467Z,7.37
2017-12-08T05:59:53.184Z,7.35
2017-12-08T06:00:53.167Z,7.3
2017-12-08T06:01:53.410Z,7.43
2017-12-08T06:02:53.402Z,7.34
2017-12-08T06:03:53.401Z,7.42
2017-12-08T06:04:53.391Z,7.43
2017-12-08T06:05:53.383Z,7.4
2017-12-08T06:06:53.372Z,7.42
2017-12-08T06:07:53.395Z,7.27
2017-12-08T06:08:53.091Z,7.27
2017-12-08T06:09:53.331Z,7.27
2017-12-08T06:10:53.306Z,7.28
2017-12-08T06:11:53.303Z,7.28
2017-12-08T06:12:53.291Z,7.43
2017-12-08T06:13:53.269Z,7.42
2017-12-08T06:14:53.000Z,7.49
2017-12-08T06:15:53.255Z,7.57
2017-12-08T06:16:53.254Z,7.58
2017-12-08T06:17:53.233Z,7.55
2017-12-08T06:18:53.208Z,7.5
2017-12-08T06:19:53.219Z,7.43
2017-12-08T06:20:53.189Z,7.6
2017-12-08T06:21:52.931Z,7.49
2017-12-08T06:22:52.928Z,7.57
2017-12-08T06:23:52.646Z,7.55
2017-12-08T06:24:53.173Z,7.55
2017-12-08T06:25:53.143Z,7.61
2017-12-08T06:26:53.126Z,7.67
2017-12-08T06:27:53.127Z,7.72
2017-12-08T06:28:53.105Z,7.74
2017-12-08T06:29:53.087Z,7.68
2017-12-08T06:30:53.144Z,7.75
2017-12-08T06:31:53.076Z,7.71
2017-12-08T06:32:52.802Z,7.71
2017-12-08T06:33:53.050Z,7.71
2017-12-08T06:34:53.046Z,7.83
2017-12-08T06:35:53.035Z,7.72
2017-12-08T06:36:53.017Z,7.72
2017-12-08T06:37:52.996Z,7.75
2017-12-08T06:38:52.996Z,7.75
2017-12-08T06:39:52.714Z,7.79
2017-12-08T06:40:52.959Z,7.82
2017-12-08T06:41:52.958Z,7.85
2017-12-08T06:42:52.952Z,7.86
2017-12-08T06:43:52.922Z,7.87
2017-12-08T06:44:52.919Z,7.79
2017-12-08T06:45:52.908Z,7.69
2017-12-08T06:46:52.896Z,7.6
2017-12-08T06:47:52.636Z,7.53
2017-12-08T06:48:52.873Z,7.46
2017-12-08T06:49:52.865Z,7.46
2017-12-08T06:50:52.585Z,7.32
2017-12-08T06:51:52.840Z,7.24
2017-12-08T06:52:52.836Z,7.2
2017-12-08T06:53:52.819Z,7.16
2017-12-08T06:54:52.820Z,7.06
2017-12-08T06:55:52.804Z,6.95
2017-12-08T06:56:52.774Z,6.79
2017-12-08T06:57:52.777Z,6.88
2017-12-08T06:58:52.762Z,6.8
2017-12-08T06:59:52.756Z,6.71
2017-12-08T07:00:52.739Z,6.67
2017-12-08T07:01:52.725Z,6.64
2017-12-08T07:02:52.713Z,6.52
2017-12-08T07:03:52.712Z,6.56
2017-12-08T07:04:52.690Z,6.49
2017-12-08T07:05:52.687Z,6.48
2017-12-08T07:06:52.658Z,6.52
2017-12-08T07:07:52.646Z,6.48
2017-12-08T07:08:52.645Z,6.38
2017-12-08T07:09:52.621Z,6.36
2017-12-08T07:10:52.621Z,6.41
2017-12-08T07:11:52.615Z,6.38
2017-12-08T07:12:52.592Z,6.22
2017-12-08T07:13:52.575Z,6.28
2017-12-08T07:14:52.580Z,6.19
2017-12-08T07:15:52.565Z,6.11
2017-12-08T07:16:52.539Z,6.11
2017-12-08T07:17:52.329Z,6.03
2017-12-08T07:18:52.514Z,6
2017-12-08T07:19:52.529Z,6
2017-12-08T07:20:52.492Z,5.94
2017-12-08T07:21:52.485Z,5.85
2017-12-08T07:22:52.468Z,5.94
2017-12-08T07:23:52.454Z,5.9
2017-12-08T07:24:52.447Z,5.86
2017-12-08T07:25:52.435Z,5.85
2017-12-08T07:26:52.416Z,5.82
2017-12-08T07:27:52.416Z,5.76
2017-12-08T07:28:52.400Z,5.72
2017-12-08T07:29:52.371Z,5.74
2017-12-08T07:30:52.381Z,5.72
2017-12-08T07:31:52.356Z,5.63
2017-12-08T07:32:52.349Z,5.64
2017-12-08T07:33:52.363Z,5.6
2017-12-08T07:34:52.313Z,5.67
2017-12-08T07:35:52.297Z,5.61
2017-12-08T07:36:52.293Z,5.63
2017-12-08T07:37:52.025Z,5.56
2017-12-08T07:38:52.271Z,5.53
2017-12-08T07:39:52.242Z,5.56
2017-12-08T07:40:52.252Z,5.57
2017-12-08T07:41:52.235Z,5.6
2017-12-08T07:42:52.221Z,5.54
2017-12-08T07:43:52.211Z,5.58
2017-12-08T07:44:52.184Z,5.57
2017-12-08T07:45:52.177Z,5.4
2017-12-08T07:46:52.163Z,5.46
2017-12-08T07:47:52.159Z,5.38
2017-12-08T07:48:52.146Z,5.45
2017-12-08T07:49:51.876Z,5.36
2017-12-08T07:50:52.106Z,5.35
2017-12-08T07:51:52.105Z,5.36
2017-12-08T07:52:52.088Z,5.28
2017-12-08T07:53:52.076Z,5.35
2017-12-08T07:54:52.071Z,5.25
2017-12-08T07:55:52.051Z,5.22
2017-12-08T07:56:52.022Z,5.17
2017-12-08T07:57:52.029Z,5.27
2017-12-08T07:58:52.058Z,5.25
2017-12-08T07:59:52.000Z,5.21
2017-12-08T08:00:51.983Z,5.24
2017-12-08T08:01:51.978Z,5.21
2017-12-08T08:02:51.707Z,5.25
2017-12-08T08:03:51.948Z,5.25
2017-12-08T08:04:51.943Z,5.28
2017-12-08T08:05:51.914Z,5.25
2017-12-08T08:06:51.902Z,5.31
2017-12-08T08:07:51.642Z,5.36
2017-12-08T08:08:51.876Z,5.3
2017-12-08T08:09:51.892Z,5.33
2017-12-08T08:10:51.852Z,5.36
2017-12-08T08:11:51.845Z,5.39
2017-12-08T08:12:51.834Z,5.4
2017-12-08T08:13:51.562Z,5.43
2017-12-08T08:14:51.786Z,5.39
2017-12-08T08:15:51.788Z,5.38
2017-12-08T08:16:51.778Z,5.46
2017-12-08T08:17:51.772Z,5.45
2017-12-08T08:18:51.777Z,5.45
2017-12-08T08:19:51.740Z,5.53
2017-12-08T08:20:51.722Z,5.53
2017-12-08T08:21:51.716Z,5.49
2017-12-08T08:22:51.703Z,5.48
2017-12-08T08:23:51.692Z,5.54
2017-12-08T08:24:51.670Z,5.58
2017-12-08T08:25:51.708Z,5.58
2017-12-08T08:26:51.644Z,5.51
2017-12-08T08:27:51.630Z,5.63
2017-12-08T08:28:51.698Z,5.58
2017-12-08T08:29:51.609Z,5.63
2017-12-08T08:30:51.337Z,5.71
2017-12-08T08:31:51.340Z,5.72
2017-12-08T08:32:51.065Z,5.68
2017-12-08T08:33:51.559Z,5.78
2017-12-08T08:34:51.558Z,5.79
2017-12-08T08:35:51.545Z,5.68
2017-12-08T08:36:51.524Z,5.89
2017-12-08T08:37:51.514Z,5.76
2017-12-08T08:38:51.495Z,5.89
2017-12-08T08:39:51.507Z,5.91
2017-12-08T08:40:51.503Z,5.85
2017-12-08T08:41:51.466Z,5.85
2017-12-08T08:42:51.445Z,5.82
2017-12-08T08:43:51.446Z,5.83
2017-12-08T08:44:51.447Z,5.89
2017-12-08T08:45:51.441Z,5.83
2017-12-08T08:46:51.398Z,5.91
2017-12-08T08:47:51.379Z,5.89
2017-12-08T08:48:50.882Z,6.01
2017-12-08T08:49:51.388Z,6.01
2017-12-08T08:50:51.367Z,6.01
2017-12-08T08:51:51.358Z,6.08
2017-12-08T08:52:51.347Z,6.11
2017-12-08T08:53:51.316Z,6.04
2017-12-08T08:54:51.327Z,6.11
2017-12-08T08:55:51.329Z,5.97
2017-12-08T08:56:51.292Z,6.08
2017-12-08T08:57:51.007Z,6.08
2017-12-08T08:58:51.531Z,6.17
2017-12-08T08:59:51.288Z,6.12
2017-12-08T09:00:51.234Z,6.21
2017-12-08T09:01:51.224Z,6.18
2017-12-08T09:02:51.251Z,6.21
2017-12-08T09:03:51.500Z,6.3
2017-12-08T09:04:51.213Z,6.3
2017-12-08T09:05:51.209Z,6.31
2017-12-08T09:06:50.948Z,6.3
2017-12-08T09:07:51.236Z,6.36
2017-12-08T09:08:51.223Z,6.41
2017-12-08T09:09:51.123Z,6.31
2017-12-08T09:10:51.128Z,6.34
2017-12-08T09:11:51.080Z,6.43
2017-12-08T09:12:51.078Z,6.43
2017-12-08T09:13:51.079Z,6.52
2017-12-08T09:14:51.061Z,6.51
2017-12-08T09:15:51.043Z,6.54
2017-12-08T09:16:51.063Z,6.48
2017-12-08T09:17:51.035Z,6.62
2017-12-08T09:18:51.088Z,6.71
2017-12-08T09:19:50.987Z,6.69
2017-12-08T09:20:50.986Z,6.7
2017-12-08T09:21:50.969Z,6.67
2017-12-08T09:22:50.967Z,6.76
2017-12-08T09:23:50.957Z,6.88
2017-12-08T09:24:50.673Z,6.84
2017-12-08T09:25:50.944Z,6.87
2017-12-08T09:26:50.917Z,6.95
2017-12-08T09:27:50.921Z,7.03
2017-12-08T09:28:50.884Z,7.1
2017-12-08T09:29:50.919Z,7.06
2017-12-08T09:30:50.863Z,7.07
2017-12-08T09:31:50.850Z,7.12
2017-12-08T09:32:50.824Z,6.99
2017-12-08T09:33:50.826Z,7.02
2017-12-08T09:34:50.825Z,7.16
2017-12-08T09:35:50.806Z,7.05
2017-12-08T09:36:50.776Z,7.16
2017-12-08T09:37:50.787Z,7.07
2017-12-08T09:38:50.776Z,7.17
2017-12-08T09:39:50.748Z,7.07
2017-12-08T09:40:50.770Z,7.1
2017-12-08T09:41:50.744Z,7.1
2017-12-08T09:42:50.788Z,7.15
2017-12-08T09:43:50.699Z,7.15
2017-12-08T09:44:50.735Z,7.12
2017-12-08T09:45:50.713Z,7.1
2017-12-08T09:46:50.678Z,7.07
2017-12-08T09:47:50.657Z,7.15
2017-12-08T09:48:50.648Z,7.1
2017-12-08T09:49:50.640Z,7.17
2017-12-08T09:50:50.657Z,7.17
2017-12-08T09:51:50.360Z,7.1
2017-12-08T09:52:50.641Z,7.07
2017-12-08T09:53:50.644Z,7.09
2017-12-08T09:54:50.681Z,7.21
2017-12-08T09:55:50.678Z,7.15
2017-12-08T09:56:50.633Z,7.15
2017-12-08T09:57:50.529Z,7.23
2017-12-08T09:58:50.547Z,7.2
2017-12-08T09:59:50.294Z,7.17
2017-12-08T10:00:50.509Z,7.17
2017-12-08T10:01:50.491Z,7.12
2017-12-08T10:02:50.497Z,7.1
2017-12-08T10:03:50.529Z,7.12
2017-12-08T10:04:50.459Z,7.17
2017-12-08T10:05:50.503Z,7.07
2017-12-08T10:06:49.983Z,7.1
2017-12-08T10:07:50.222Z,7.17
2017-12-08T10:08:50.437Z,7.1
2017-12-08T10:09:50.478Z,7.13
2017-12-08T10:10:50.404Z,7.12
2017-12-08T10:11:50.382Z,7.21
2017-12-08T10:12:50.377Z,7.17
2017-12-08T10:13:50.101Z,7.3
2017-12-08T10:14:50.351Z,7.28
2017-12-08T10:15:50.375Z,7.28
2017-12-08T10:16:50.368Z,7.42
2017-12-08T10:17:50.381Z,7.43
2017-12-08T10:18:50.340Z,7.49
2017-12-08T10:19:50.284Z,7.55
2017-12-08T10:20:50.278Z,7.58
2017-12-08T10:21:50.041Z,7.64
2017-12-08T10:22:50.073Z,7.75
2017-12-08T10:23:50.838Z,7.79
2017-12-08T10:24:50.300Z,7.85
2017-12-08T10:25:50.025Z,7.86
2017-12-08T10:26:49.964Z,8
2017-12-08T10:27:50.270Z,8
2017-12-08T10:28:50.233Z,8
2017-12-08T10:29:50.195Z,8.1
2017-12-08T10:30:49.932Z,8.16
2017-12-08T10:31:50.160Z,8.33
2017-12-08T10:32:50.147Z,8.37
2017-12-08T10:33:50.211Z,8.34
2017-12-08T10:34:50.182Z,8.48
2017-12-08T10:35:50.215Z,8.41
2017-12-08T10:36:50.389Z,8.44
2017-12-08T10:37:50.200Z,8.37
2017-12-08T10:38:50.168Z,8.48
2017-12-08T10:39:50.206Z,8.48
2017-12-08T10:40:50.130Z,8.5
2017-12-08T10:41:50.049Z,8.66
2017-12-08T10:42:50.150Z,8.65
2017-12-08T10:43:50.044Z,8.65
2017-12-08T10:44:50.028Z,8.76
2017-12-08T10:45:50.088Z,8.68
2017-12-08T10:46:50.052Z,8.81
2017-12-08T10:47:50.048Z,8.79
2017-12-08T10:48:49.975Z,8.83
2017-12-08T10:49:49.964Z,8.89
2017-12-08T10:50:49.946Z,8.96
2017-12-08T10:51:49.946Z,9.01
2017-12-08T10:52:49.982Z,9.15
2017-12-08T10:53:49.961Z,9.02
2017-12-08T10:54:49.956Z,9.05
2017-12-08T10:55:49.921Z,9.21
2017-12-08T10:56:49.988Z,9.14
2017-12-08T10:57:49.886Z,9.21
2017-12-08T10:58:49.875Z,9.18
2017-12-08T10:59:49.844Z,9.29
2017-12-08T11:00:49.839Z,9.18
2017-12-08T11:01:49.858Z,9.29
2017-12-08T11:02:49.822Z,9.21
2017-12-08T11:03:49.823Z,9.15
2017-12-08T11:04:49.848Z,9.17
2017-12-08T11:05:49.809Z,9.18
2017-12-08T11:06:49.777Z,9.26
2017-12-08T11:07:49.773Z,9.32
2017-12-08T11:08:49.761Z,9.32
2017-12-08T11:09:49.527Z,9.4
2017-12-08T11:10:49.816Z,9.36
2017-12-08T11:11:49.762Z,9.47
2017-12-08T11:12:49.472Z,9.39
2017-12-08T11:13:49.728Z,9.48
2017-12-08T11:14:49.701Z,9.5
2017-12-08T11:15:49.714Z,9.56
2017-12-08T11:16:49.692Z,9.64
2017-12-08T11:17:49.720Z,9.65
2017-12-08T11:18:49.699Z,9.58
2017-12-08T11:19:49.642Z,9.43
2017-12-08T11:20:49.648Z,9.47
2017-12-08T11:21:49.637Z,9.4
2017-12-08T11:22:49.626Z,9.46
2017-12-08T11:23:49.615Z,9.32
2017-12-08T11:24:49.629Z,9.15
2017-12-08T11:25:49.627Z,9.21
2017-12-08T11:26:49.614Z,9.18
2017-12-08T11:27:49.614Z,9.18
2017-12-08T11:28:49.575Z,9.05
2017-12-08T11:29:49.553Z,9.02
2017-12-08T11:30:49.546Z,9.08
2017-12-08T11:31:49.534Z,9.04
2017-12-08T11:32:49.557Z,8.99
2017-12-08T11:33:49.517Z,9.01
2017-12-08T11:34:49.510Z,8.96
2017-12-08T11:35:49.483Z,8.96
2017-12-08T11:36:49.480Z,8.95
2017-12-08T11:37:49.216Z,8.92
2017-12-08T11:38:49.473Z,8.96
2017-12-08T11:39:49.482Z,8.84
2017-12-08T11:40:49.466Z,8.81
2017-12-08T11:41:49.450Z,8.81
2017-12-08T11:42:49.441Z,8.7
2017-12-08T11:43:49.409Z,8.71
2017-12-08T11:44:49.408Z,8.76
2017-12-08T11:45:49.402Z,8.56
2017-12-08T11:46:49.384Z,8.65
2017-12-08T11:47:49.393Z,8.59
2017-12-08T11:48:49.110Z,8.61
2017-12-08T11:49:49.365Z,8.47
2017-12-08T11:50:49.344Z,8.41
2017-12-08T11:51:49.776Z,8.48
2017-12-08T11:52:49.317Z,8.44
2017-12-08T11:53:49.310Z,8.47
2017-12-08T11:54:49.067Z,8.47
2017-12-08T11:55:49.298Z,8.47
2017-12-08T11:56:49.312Z,8.47
2017-12-08T11:57:49.272Z,8.43
2017-12-08T11:58:48.996Z,8.38
2017-12-08T11:59:49.239Z,8.47
2017-12-08T12:00:49.234Z,8.43
2017-12-08T12:01:49.246Z,8.53
2017-12-08T12:02:49.206Z,8.52
2017-12-08T12:03:49.211Z,8.53
2017-12-08T12:04:49.193Z,8.45
2017-12-08T12:05:49.187Z,8.48
2017-12-08T12:06:48.912Z,8.53
2017-12-08T12:07:48.908Z,8.52
2017-12-08T12:08:49.146Z,8.5
2017-12-08T12:09:48.916Z,8.5
2017-12-08T12:10:49.132Z,8.53
2017-12-08T12:11:49.151Z,8.61
2017-12-08T12:12:49.110Z,8.59
2017-12-08T12:13:49.119Z,8.61
2017-12-08T12:14:49.095Z,8.59
2017-12-08T12:15:49.107Z,8.47
2017-12-08T12:16:48.816Z,8.52
2017-12-08T12:17:49.051Z,8.55
2017-12-08T12:18:49.043Z,8.52
2017-12-08T12:19:49.027Z,8.52
2017-12-08T12:20:49.021Z,8.59
2017-12-08T12:21:49.035Z,8.62
2017-12-08T12:22:49.000Z,8.63
2017-12-08T12:23:49.002Z,8.71
2017-12-08T12:24:48.749Z,8.65
2017-12-08T12:25:48.972Z,8.74
2017-12-08T12:26:48.958Z,8.7
2017-12-08T12:27:48.952Z,8.73
2017-12-08T12:28:48.946Z,8.8
2017-12-08T12:29:48.733Z,8.81
2017-12-08T12:30:48.909Z,8.77
2017-12-08T12:31:49.288Z,8.79
2017-12-08T12:32:48.889Z,8.83
2017-12-08T12:33:48.875Z,8.87
2017-12-08T12:34:48.860Z,8.84
2017-12-08T12:35:48.858Z,8.92
2017-12-08T12:36:48.603Z,8.87
2017-12-08T12:37:48.844Z,8.81
2017-12-08T12:38:48.822Z,9.04
2017-12-08T12:39:48.561Z,9.1
2017-12-08T12:40:48.843Z,8.98
2017-12-08T12:41:48.846Z,9.14
2017-12-08T12:42:48.808Z,9.15
2017-12-08T12:43:48.534Z,9.15
2017-12-08T12:44:48.515Z,9.18
2017-12-08T12:45:48.505Z,9.15
2017-12-08T12:46:48.507Z,9.29
2017-12-08T12:47:48.732Z,9.31
2017-12-08T12:48:48.487Z,9.35
2017-12-08T12:49:48.744Z,9.43
2017-12-08T12:50:48.714Z,9.42
2017-12-08T12:51:48.719Z,9.29
2017-12-08T12:52:48.704Z,9.29
2017-12-08T12:53:48.669Z,9.28
2017-12-08T12:54:48.666Z,9.15
2017-12-08T12:55:48.412Z,9.23
2017-12-08T12:56:48.663Z,9.17
2017-12-08T12:57:48.653Z,9.1
2017-12-08T12:58:48.400Z,9.02
2017-12-08T12:59:48.641Z,9.02
2017-12-08T13:00:48.359Z,8.99
2017-12-08T13:01:48.621Z,8.99
2017-12-08T13:02:48.599Z,8.94
2017-12-08T13:03:48.573Z,8.94
2017-12-08T13:04:48.581Z,8.86
2017-12-08T13:05:48.312Z,8.7
2017-12-08T13:06:48.553Z,8.76
2017-12-08T13:07:48.547Z,8.58
2017-12-08T13:08:48.532Z,8.62
2017-12-08T13:09:48.520Z,8.58
2017-12-08T13:10:48.555Z,8.44
2017-12-08T13:11:48.545Z,8.48
2017-12-08T13:12:48.507Z,8.36
2017-12-08T13:13:48.474Z,8.36
2017-12-08T13:14:48.526Z,8.25
2017-12-08T13:15:48.491Z,8.28
2017-12-08T13:16:47.938Z,8.19
2017-12-08T13:17:48.442Z,8.11
2017-12-08T13:18:48.432Z,8.01
2017-12-08T13:19:48.440Z,8.04
2017-12-08T13:20:48.416Z,8
2017-12-08T13:21:48.418Z,8.01
2017-12-08T13:22:48.125Z,8.05